Time;durP1;ratioP1;P1;durP2;ratioP2;P2;SDS_P1;SDS_P2;PMS_P1;PMS_P2;Temp;Humidity;BMP_temperature;BMP_pressure;BME280_temperature;BME280_humidity;BME280_pressure;Samples;Min_cycle;Max_cycle;Signal;HPM_P1;HPM_P2
2021/11/15 00:01:56;;;;;;;56.10;36.13;;;9.80;99.90;;;;;;5093280;28;20239;-67
2021/11/15 00:04:25;;;;;;;54.20;35.60;;;9.80;99.90;;;;;;5081888;28;20231;-67
2021/11/15 00:06:52;;;;;;;54.38;35.05;;;9.70;99.90;;;;;;5093295;28;20223;-67
2021/11/15 00:09:20;;;;;;;49.70;35.10;;;9.70;99.90;;;;;;5092957;28;20242;-66
2021/11/15 00:11:47;;;;;;;53.90;35.13;;;9.80;99.90;;;;;;5080026;28;20303;-67
2021/11/15 00:14:14;;;;;;;54.67;35.40;;;9.80;99.90;;;;;;5092679;28;20227;-67
2021/11/15 00:16:41;;;;;;;54.63;34.63;;;9.80;99.90;;;;;;5093345;28;20235;-66
2021/11/15 00:19:08;;;;;;;51.25;33.65;;;9.80;99.90;;;;;;5093082;28;20592;-67
2021/11/15 00:21:37;;;;;;;60.55;38.20;;;9.80;99.90;;;;;;5092674;28;20566;-66
2021/11/15 00:24:04;;;;;;;53.83;36.22;;;9.80;99.90;;;;;;5092984;28;20220;-66
2021/11/15 00:26:31;;;;;;;51.97;35.30;;;9.90;99.90;;;;;;5092717;28;20237;-67
2021/11/15 00:28:58;;;;;;;55.75;34.67;;;9.90;99.90;;;;;;5092891;28;20227;-66
2021/11/15 00:31:26;;;;;;;50.88;32.50;;;9.90;99.90;;;;;;5092573;28;20321;-67
2021/11/15 00:33:54;;;;;;;56.10;35.25;;;9.90;99.90;;;;;;5092858;28;20227;-67
2021/11/15 00:36:22;;;;;;;54.08;33.53;;;9.90;99.90;;;;;;5092399;28;20230;-67
2021/11/15 00:38:51;;;;;;;54.10;35.03;;;9.90;99.90;;;;;;5092767;28;20246;-66
2021/11/15 00:41:19;;;;;;;57.47;35.88;;;9.80;99.90;;;;;;5092463;28;20238;-66
2021/11/15 00:43:46;;;;;;;52.30;35.00;;;9.90;99.90;;;;;;5092755;28;20223;-67
2021/11/15 00:46:13;;;;;;;51.45;35.60;;;9.90;99.90;;;;;;5092758;28;20235;-67
2021/11/15 00:48:40;;;;;;;50.53;34.47;;;9.90;99.90;;;;;;5092219;28;20230;-66
2021/11/15 00:51:07;;;;;;;50.20;32.35;;;9.90;99.90;;;;;;5092777;28;20235;-67
2021/11/15 00:53:34;;;;;;;50.38;33.75;;;10.00;99.90;;;;;;5092316;27;20626;-66
2021/11/15 00:56:03;;;;;;;54.15;33.63;;;10.00;99.90;;;;;;5092597;28;20819;-66
2021/11/15 00:58:30;;;;;;;50.80;32.78;;;10.00;99.90;;;;;;5078517;28;20697;-67
2021/11/15 01:00:57;;;;;;;49.67;33.17;;;10.00;99.90;;;;;;5092708;28;20580;-66
2021/11/15 01:03:24;;;;;;;46.40;32.75;;;10.00;99.90;;;;;;5091954;28;20227;-67
2021/11/15 01:05:51;;;;;;;52.25;36.40;;;10.00;99.90;;;;;;5092743;28;20794;-67
2021/11/15 01:08:19;;;;;;;46.67;32.50;;;10.00;99.90;;;;;;5092036;28;20491;-66
2021/11/15 01:10:53;;;;;;;51.40;34.15;;;10.10;99.90;;;;;;5092631;28;20233;-67
2021/11/15 01:13:22;;;;;;;46.42;32.38;;;10.10;99.90;;;;;;5093323;28;20298;-67
2021/11/15 01:15:49;;;;;;;44.03;30.38;;;10.10;99.90;;;;;;5096658;28;20218;-67
2021/11/15 01:18:16;;;;;;;46.15;32.08;;;10.00;99.90;;;;;;5096657;28;20222;-67
2021/11/15 01:20:44;;;;;;;42.50;30.17;;;10.00;99.90;;;;;;5096281;28;20222;-67
2021/11/15 01:23:11;;;;;;;49.17;31.95;;;10.00;99.90;;;;;;5083291;28;20247;-66
2021/11/15 01:25:39;;;;;;;46.13;30.90;;;10.00;99.90;;;;;;5096155;28;20227;-67
2021/11/15 01:28:07;;;;;;;43.67;31.20;;;10.00;99.90;;;;;;5096665;28;20223;-67
2021/11/15 01:30:36;;;;;;;48.17;30.92;;;10.00;99.90;;;;;;5095914;28;20238;-66
2021/11/15 01:33:04;;;;;;;47.95;32.17;;;10.00;99.90;;;;;;5056152;28;20221;-66
2021/11/15 01:35:31;;;;;;;46.33;31.05;;;10.00;99.90;;;;;;5055861;28;20228;-66
2021/11/15 01:37:58;;;;;;;47.20;32.60;;;10.10;99.90;;;;;;5055983;28;20228;-67
2021/11/15 01:40:29;;;;;;;45.17;31.98;;;10.10;99.90;;;;;;5055514;28;20231;-67
2021/11/15 01:42:57;;;;;;;48.72;32.55;;;10.10;99.90;;;;;;5055808;28;20232;-67
2021/11/15 01:45:27;;;;;;;48.72;31.63;;;10.00;99.90;;;;;;5055495;28;20220;-66
2021/11/15 01:47:57;;;;;;;46.72;31.77;;;10.00;99.90;;;;;;5055784;28;20573;-67
2021/11/15 01:50:25;;;;;;;42.97;29.83;;;10.00;99.90;;;;;;5055336;28;20232;-65
2021/11/15 01:52:54;;;;;;;48.70;32.95;;;10.00;99.90;;;;;;5055675;28;20619;-66
2021/11/15 01:55:22;;;;;;;43.85;30.20;;;10.00;99.90;;;;;;5055192;28;20236;-66
2021/11/15 01:57:52;;;;;;;50.78;32.92;;;10.00;99.90;;;;;;5042784;28;20222;-65
2021/11/15 02:00:22;;;;;;;45.83;32.35;;;10.00;99.90;;;;;;5055104;28;20224;-66
2021/11/15 02:02:49;;;;;;;41.70;29.88;;;10.00;99.90;;;;;;5055139;28;20284;-66
2021/11/15 02:05:17;;;;;;;47.05;30.77;;;10.00;99.90;;;;;;5055360;28;20701;-66
2021/11/15 02:07:46;;;;;;;45.00;31.52;;;10.00;99.90;;;;;;5055025;28;20282;-66
2021/11/15 02:10:13;;;;;;;50.58;33.40;;;10.00;99.90;;;;;;5055450;28;20233;-66
2021/11/15 02:12:41;;;;;;;48.58;32.22;;;10.00;99.90;;;;;;5054892;28;20224;-66
2021/11/15 02:15:12;;;;;;;48.45;33.40;;;10.00;99.90;;;;;;5055332;28;20225;-65
2021/11/15 02:17:39;;;;;;;48.55;32.97;;;10.00;99.90;;;;;;5055016;28;20706;-65
2021/11/15 02:20:12;;;;;;;45.05;33.20;;;10.00;99.90;;;;;;5055004;28;20227;-66
2021/11/15 02:22:40;;;;;;;47.90;32.72;;;10.00;99.90;;;;;;5054934;28;20745;-66
2021/11/15 02:25:08;;;;;;;45.15;30.73;;;10.00;99.90;;;;;;5055029;28;20232;-66
2021/11/15 02:27:36;;;;;;;46.95;33.45;;;10.00;99.90;;;;;;5054720;28;20236;-65
2021/11/15 02:30:05;;;;;;;52.67;33.83;;;10.00;99.90;;;;;;5055194;28;20618;-66
2021/11/15 02:32:32;;;;;;;53.10;34.10;;;10.00;99.90;;;;;;5085963;28;20227;-65
2021/11/15 02:34:59;;;;;;;46.15;31.58;;;9.90;99.90;;;;;;5095055;28;20265;-66
2021/11/15 02:37:26;;;;;;;47.55;34.10;;;9.90;99.90;;;;;;5095273;28;20255;-66
2021/11/15 02:39:55;;;;;;;48.55;31.55;;;10.00;99.90;;;;;;5094858;28;20227;-66
2021/11/15 02:42:22;;;;;;;45.63;33.15;;;10.00;99.90;;;;;;5095050;28;20224;-65
2021/11/15 02:44:49;;;;;;;48.50;32.65;;;10.00;99.90;;;;;;5094484;28;20231;-66
2021/11/15 02:47:19;;;;;;;46.28;32.38;;;10.00;99.90;;;;;;5094975;28;20230;-66
2021/11/15 02:49:46;;;;;;;44.67;32.05;;;10.00;99.90;;;;;;5094343;28;20570;-66
2021/11/15 02:52:14;;;;;;;46.22;30.50;;;10.00;99.90;;;;;;5095025;28;20223;-66
2021/11/15 02:54:41;;;;;;;49.63;34.40;;;10.00;99.90;;;;;;5094270;28;20235;-66
2021/11/15 02:57:14;;;;;;;45.10;30.38;;;10.00;99.90;;;;;;5094477;28;20241;-66
2021/11/15 02:59:42;;;;;;;47.97;32.22;;;10.10;99.90;;;;;;5094424;28;20257;-66
2021/11/15 03:02:09;;;;;;;46.47;30.42;;;10.10;99.90;;;;;;5094924;28;20238;-66
2021/11/15 03:04:36;;;;;;;50.75;35.45;;;10.10;99.90;;;;;;5094044;28;20236;-66
2021/11/15 03:07:03;;;;;;;43.55;29.50;;;10.10;99.90;;;;;;5094765;28;20223;-66
2021/11/15 03:09:30;;;;;;;48.42;34.22;;;10.10;99.90;;;;;;5094245;28;20684;-66
2021/11/15 03:12:06;;;;;;;47.05;32.67;;;10.10;99.90;;;;;;5094320;28;21030;-66
2021/11/15 03:14:35;;;;;;;48.60;32.78;;;10.10;99.90;;;;;;5093974;28;20219;-66
2021/11/15 03:17:02;;;;;;;45.70;34.80;;;10.10;99.90;;;;;;5094452;28;20246;-66
2021/11/15 03:19:29;;;;;;;50.70;34.28;;;10.10;99.90;;;;;;5094339;28;20223;-66
2021/11/15 03:21:56;;;;;;;53.80;33.60;;;10.10;99.90;;;;;;5093781;28;20239;-65
2021/11/15 03:24:23;;;;;;;44.13;29.73;;;10.10;99.90;;;;;;5094159;28;20219;-66
2021/11/15 03:26:50;;;;;;;48.63;34.35;;;10.00;99.90;;;;;;5093768;28;20227;-66
2021/11/15 03:29:17;;;;;;;43.03;31.05;;;10.00;99.90;;;;;;5094247;28;20231;-66
2021/11/15 03:31:45;;;;;;;45.65;31.60;;;10.00;99.90;;;;;;5093520;28;20250;-66
2021/11/15 03:34:15;;;;;;;48.28;33.95;;;10.00;99.90;;;;;;5094063;28;20576;-66
2021/11/15 03:36:44;;;;;;;47.05;31.10;;;9.90;99.90;;;;;;5092989;28;20238;-66
2021/11/15 03:39:13;;;;;;;42.17;30.50;;;9.90;99.90;;;;;;5093851;28;20281;-66
2021/11/15 03:41:43;;;;;;;47.65;31.98;;;9.90;99.90;;;;;;5093504;28;20223;-66
2021/11/15 03:44:11;;;;;;;51.67;35.40;;;9.90;99.90;;;;;;5093968;28;20223;-66
2021/11/15 03:46:40;;;;;;;46.70;32.72;;;9.80;99.90;;;;;;5092755;28;20234;-66
2021/11/15 03:49:14;;;;;;;49.33;36.15;;;9.70;99.90;;;;;;5093562;28;20239;-66
2021/11/15 03:51:41;;;;;;;47.92;31.40;;;9.70;99.90;;;;;;5093293;28;20229;-66
2021/11/15 03:54:08;;;;;;;45.28;34.38;;;9.80;99.90;;;;;;5093686;28;20235;-66
2021/11/15 03:56:35;;;;;;;53.25;33.00;;;9.80;99.90;;;;;;5093477;28;20228;-66
2021/11/15 03:59:02;;;;;;;53.55;36.60;;;9.70;99.90;;;;;;5093279;28;20253;-66
2021/11/15 04:01:32;;;;;;;50.08;34.30;;;9.70;99.90;;;;;;5093612;28;20211;-66
2021/11/15 04:04:01;;;;;;;55.70;32.40;;;9.70;99.90;;;;;;5093011;28;20745;-66
2021/11/15 04:06:37;;;;;;;52.33;35.83;;;9.60;99.90;;;;;;5093524;28;20216;-65
2021/11/15 04:09:09;;;;;;;51.70;33.03;;;9.60;99.90;;;;;;5092674;28;20306;-66
2021/11/15 04:11:37;;;;;;;47.72;31.52;;;9.50;99.90;;;;;;5093251;28;20684;-66
2021/11/15 04:14:06;;;;;;;49.25;32.25;;;9.50;99.90;;;;;;5092440;28;20219;-66
2021/11/15 04:16:34;;;;;;;51.78;33.50;;;9.50;99.90;;;;;;5093447;28;20604;-66
2021/11/15 04:19:05;;;;;;;50.45;33.22;;;9.60;99.90;;;;;;5092667;28;20292;-65
2021/11/15 04:21:36;;;;;;;55.25;34.20;;;9.50;99.90;;;;;;5092735;28;20231;-66
2021/11/15 04:24:05;;;;;;;50.95;33.50;;;9.50;99.90;;;;;;5089926;28;20591;-65
2021/11/15 04:26:33;;;;;;;50.47;34.20;;;9.50;99.90;;;;;;5093263;28;20676;-66
2021/11/15 04:29:00;;;;;;;48.67;34.40;;;9.50;99.90;;;;;;5092544;28;20234;-66
2021/11/15 04:31:38;;;;;;;52.92;33.05;;;9.40;99.90;;;;;;5093036;28;20227;-66
2021/11/15 04:34:05;;;;;;;53.50;38.03;;;9.40;99.90;;;;;;5092696;28;20215;-65
2021/11/15 04:36:33;;;;;;;50.95;32.80;;;9.50;99.90;;;;;;5092916;28;20228;-66
2021/11/15 04:39:00;;;;;;;47.35;32.25;;;9.40;99.90;;;;;;5091973;28;20302;-66
2021/11/15 04:41:27;;;;;;;45.90;32.47;;;9.40;99.90;;;;;;5093032;28;20219;-66
2021/11/15 04:43:54;;;;;;;58.08;34.47;;;9.50;99.90;;;;;;5092280;28;20226;-66
2021/11/15 04:46:21;;;;;;;55.92;35.45;;;9.40;99.90;;;;;;5092703;28;20230;-67
2021/11/15 04:48:48;;;;;;;49.10;33.80;;;9.40;99.90;;;;;;5088061;28;20234;-67
2021/11/15 04:51:15;;;;;;;55.95;34.53;;;9.40;99.90;;;;;;5092581;28;20223;-66
2021/11/15 04:53:43;;;;;;;52.22;32.22;;;9.50;99.90;;;;;;5092795;28;20276;-67
2021/11/15 04:56:10;;;;;;;48.28;34.33;;;9.50;99.90;;;;;;5092150;28;20234;-66
2021/11/15 04:58:38;;;;;;;51.28;33.05;;;9.50;99.90;;;;;;5079063;28;20258;-66
2021/11/15 05:01:07;;;;;;;53.13;35.75;;;9.50;99.90;;;;;;5092299;28;20238;-66
2021/11/15 05:03:35;;;;;;;53.58;35.08;;;9.50;99.90;;;;;;5092478;28;20280;-66
2021/11/15 05:06:02;;;;;;;55.65;35.35;;;9.50;99.90;;;;;;5092113;28;20729;-66
2021/11/15 05:08:29;;;;;;;62.63;35.53;;;9.40;99.90;;;;;;5092661;28;20226;-66
2021/11/15 05:10:57;;;;;;;50.85;32.78;;;9.40;99.90;;;;;;5092066;28;20235;-66
2021/11/15 05:13:24;;;;;;;49.63;32.78;;;9.50;99.90;;;;;;5092623;28;20215;-65
2021/11/15 05:15:51;;;;;;;45.00;32.03;;;9.50;99.90;;;;;;5092002;28;20223;-66
2021/11/15 05:18:18;;;;;;;50.17;33.08;;;9.60;99.90;;;;;;5091706;28;20230;-66
2021/11/15 05:20:45;;;;;;;48.08;34.03;;;9.60;99.90;;;;;;5091192;28;20235;-66
2021/11/15 05:23:12;;;;;;;46.40;31.90;;;9.60;99.90;;;;;;5090494;28;20227;-66
2021/11/15 05:25:39;;;;;;;48.10;31.80;;;9.70;99.90;;;;;;5092255;28;20219;-66
2021/11/15 05:28:07;;;;;;;46.05;33.33;;;9.70;99.90;;;;;;5092157;28;20234;-66
2021/11/15 05:30:34;;;;;;;51.17;33.58;;;9.70;99.90;;;;;;5092636;28;20226;-66
2021/11/15 05:33:01;;;;;;;52.90;32.78;;;9.70;99.90;;;;;;5091904;28;20235;-66
2021/11/15 05:35:28;;;;;;;50.20;31.38;;;9.70;99.90;;;;;;5092520;28;20227;-66
2021/11/15 05:37:57;;;;;;;46.17;33.05;;;9.60;99.90;;;;;;5092136;28;20226;-66
2021/11/15 05:40:25;;;;;;;49.33;34.28;;;9.60;99.90;;;;;;5091995;28;20611;-66
2021/11/15 05:42:53;;;;;;;57.08;34.83;;;9.60;99.90;;;;;;5092053;28;20246;-65
2021/11/15 05:45:22;;;;;;;45.53;31.63;;;9.60;99.90;;;;;;5092589;28;20223;-65
2021/11/15 05:47:49;;;;;;;48.13;33.05;;;9.70;99.90;;;;;;5092303;28;20677;-65
2021/11/15 05:50:18;;;;;;;60.33;35.30;;;9.70;99.90;;;;;;5092254;28;20238;-65
2021/11/15 05:52:45;;;;;;;53.60;34.22;;;9.60;99.90;;;;;;5092336;28;20223;-65
2021/11/15 05:55:15;;;;;;;58.50;36.00;;;9.60;99.90;;;;;;5091777;28;20216;-65
2021/11/15 05:57:43;;;;;;;49.83;34.50;;;9.60;99.90;;;;;;5092277;28;20227;-66
2021/11/15 06:00:13;;;;;;;61.60;36.67;;;9.50;99.90;;;;;;5094332;28;20231;-66
2021/11/15 06:02:42;;;;;;;52.28;36.10;;;9.50;99.90;;;;;;5096110;28;20539;-66
2021/11/15 06:05:09;;;;;;;46.30;35.47;;;9.50;99.90;;;;;;5095563;28;20227;-66
2021/11/15 06:07:37;;;;;;;54.60;36.25;;;9.50;99.90;;;;;;5096178;28;20227;-66
2021/11/15 06:10:07;;;;;;;50.53;33.60;;;9.40;99.90;;;;;;5095265;28;20254;-66
2021/11/15 06:12:34;;;;;;;50.35;32.60;;;9.40;99.90;;;;;;5095833;28;20247;-66
2021/11/15 06:15:02;;;;;;;54.58;34.90;;;9.50;99.90;;;;;;5095458;28;20371;-66
2021/11/15 06:17:29;;;;;;;49.30;33.80;;;9.40;99.90;;;;;;5095889;28;20554;-66
2021/11/15 06:19:57;;;;;;;48.42;33.55;;;9.30;99.90;;;;;;5095189;28;20227;-67
2021/11/15 06:22:24;;;;;;;59.08;33.15;;;9.40;99.90;;;;;;5095750;28;20230;-66
2021/11/15 06:24:51;;;;;;;46.25;31.38;;;9.40;99.90;;;;;;5095451;28;20589;-67
2021/11/15 06:27:19;;;;;;;49.67;36.17;;;9.40;99.90;;;;;;5095299;28;20220;-66
2021/11/15 06:29:47;;;;;;;51.38;33.95;;;9.30;99.90;;;;;;5095477;28;20223;-66
2021/11/15 06:32:15;;;;;;;48.30;34.38;;;9.40;99.90;;;;;;5094835;28;20237;-66
2021/11/15 06:34:42;;;;;;;50.70;34.65;;;9.50;99.90;;;;;;5095253;28;20215;-66
2021/11/15 06:37:10;;;;;;;51.00;34.05;;;9.50;99.90;;;;;;5094898;28;20265;-67
2021/11/15 06:39:39;;;;;;;58.42;35.38;;;9.50;99.90;;;;;;5095173;28;20231;-66
2021/11/15 06:42:06;;;;;;;54.67;32.72;;;9.40;99.90;;;;;;5094767;28;20228;-67
2021/11/15 06:44:36;;;;;;;53.40;36.72;;;9.40;99.90;;;;;;5095397;28;20290;-66
2021/11/15 06:47:03;;;;;;;51.80;34.97;;;9.40;99.90;;;;;;5094785;28;20893;-66
2021/11/15 06:49:30;;;;;;;46.78;32.30;;;9.40;99.90;;;;;;5094930;28;20227;-66
2021/11/15 06:51:57;;;;;;;57.60;36.72;;;9.40;99.90;;;;;;5094665;28;20716;-67
2021/11/15 06:54:25;;;;;;;51.63;31.75;;;9.40;99.90;;;;;;5094817;28;20230;-66
2021/11/15 06:56:53;;;;;;;49.75;33.38;;;9.40;99.90;;;;;;5094853;28;20238;-66
2021/11/15 06:59:21;;;;;;;49.50;32.85;;;9.40;99.90;;;;;;5094631;28;20224;-66
2021/11/15 07:01:48;;;;;;;53.55;32.83;;;9.40;99.90;;;;;;5094864;28;20241;-66
2021/11/15 07:04:15;;;;;;;52.17;35.22;;;9.40;99.90;;;;;;5094445;28;20249;-67
2021/11/15 07:06:43;;;;;;;50.28;31.73;;;9.40;99.90;;;;;;5094855;28;20226;-66
2021/11/15 07:09:12;;;;;;;45.40;30.63;;;9.40;99.90;;;;;;5094099;28;20235;-66
2021/11/15 07:11:40;;;;;;;45.60;32.05;;;9.50;99.90;;;;;;5094007;28;20576;-66
2021/11/15 07:14:08;;;;;;;47.95;30.75;;;9.50;99.90;;;;;;5094255;28;20252;-66
2021/11/15 07:16:35;;;;;;;52.72;31.90;;;9.50;99.90;;;;;;5094403;28;20223;-67
2021/11/15 07:19:03;;;;;;;52.25;31.50;;;9.50;99.90;;;;;;5094255;28;20223;-67
2021/11/15 07:21:30;;;;;;;50.95;30.52;;;9.50;99.90;;;;;;5094704;28;20219;-66
2021/11/15 07:23:57;;;;;;;45.25;29.35;;;9.50;99.90;;;;;;5094454;28;20219;-66
2021/11/15 07:26:24;;;;;;;48.92;32.78;;;9.50;99.90;;;;;;5094254;28;20223;-66
2021/11/15 07:28:53;;;;;;;45.80;28.50;;;9.50;99.90;;;;;;5094272;28;20232;-66
2021/11/15 07:31:20;;;;;;;43.08;27.98;;;9.60;99.90;;;;;;5093626;28;20649;-66
2021/11/15 07:33:47;;;;;;;42.65;27.15;;;9.60;99.90;;;;;;5094532;28;20218;-66
2021/11/15 07:36:15;;;;;;;39.28;27.35;;;9.60;99.90;;;;;;5093668;28;20223;-66
2021/11/15 07:38:42;;;;;;;47.00;29.92;;;9.60;99.90;;;;;;5094042;28;20215;-66
2021/11/15 07:41:09;;;;;;;41.90;29.08;;;9.60;99.90;;;;;;5093798;28;20223;-66
2021/11/15 07:43:36;;;;;;;46.88;26.25;;;9.60;99.90;;;;;;5094053;28;20219;-66
2021/11/15 07:46:04;;;;;;;43.50;25.88;;;9.60;99.90;;;;;;5093720;28;20231;-66
2021/11/15 07:48:31;;;;;;;36.65;26.48;;;9.60;99.90;;;;;;5094041;28;20227;-66
2021/11/15 07:50:59;;;;;;;42.17;28.52;;;9.60;99.90;;;;;;5093871;28;20677;-66
2021/11/15 07:53:27;;;;;;;42.40;25.35;;;9.60;99.90;;;;;;5093691;28;20241;-66
2021/11/15 07:55:54;;;;;;;39.92;25.42;;;9.70;99.90;;;;;;5093897;28;20219;-66
2021/11/15 07:58:21;;;;;;;43.50;27.38;;;9.70;99.90;;;;;;5093276;28;20234;-66
2021/11/15 08:00:49;;;;;;;38.50;25.58;;;9.70;99.90;;;;;;5093606;28;20238;-66
2021/11/15 08:03:17;;;;;;;31.20;23.67;;;9.70;99.90;;;;;;5093290;28;20289;-66
2021/11/15 08:05:45;;;;;;;42.25;28.42;;;9.70;99.90;;;;;;5093559;28;20219;-66
2021/11/15 08:08:12;;;;;;;37.92;26.02;;;9.70;99.90;;;;;;5093030;28;20222;-66
2021/11/15 08:10:39;;;;;;;40.63;25.38;;;9.60;99.90;;;;;;5093816;28;20230;-66
2021/11/15 08:13:06;;;;;;;44.28;26.73;;;9.60;99.90;;;;;;5093004;28;20254;-66
2021/11/15 08:15:33;;;;;;;42.70;27.98;;;9.70;99.90;;;;;;5093632;28;20274;-66
2021/11/15 08:18:02;;;;;;;40.40;25.77;;;9.60;99.90;;;;;;5093523;28;20653;-67
2021/11/15 08:20:33;;;;;;;38.22;26.85;;;9.70;99.90;;;;;;5093023;28;20234;-66
2021/11/15 08:23:02;;;;;;;37.53;25.17;;;9.60;99.90;;;;;;5093221;28;20234;-67
2021/11/15 08:26:08;;;;;;;41.92;27.05;;;9.70;99.90;;;;;;5093243;28;20264;-67
2021/11/15 08:28:35;;;;;;;38.47;25.08;;;9.70;99.90;;;;;;5093042;28;20218;-67
2021/11/15 08:31:04;;;;;;;39.05;24.48;;;9.70;99.90;;;;;;5093121;28;20626;-67
2021/11/15 08:33:32;;;;;;;33.17;23.30;;;9.70;99.90;;;;;;5092812;28;20288;-67
2021/11/15 08:36:00;;;;;;;37.88;24.92;;;9.70;99.90;;;;;;5093229;28;20705;-67
2021/11/15 08:38:50;;;;;;;33.08;23.73;;;9.80;99.90;;;;;;5092779;28;20227;-67
2021/11/15 08:41:20;;;;;;;33.90;24.10;;;9.90;99.90;;;;;;5086921;28;20228;-68
2021/11/15 08:43:48;;;;;;;30.92;21.90;;;9.80;99.90;;;;;;5074150;28;20664;-69
2021/11/15 08:46:19;;;;;;;38.38;24.35;;;9.80;99.90;;;;;;5074519;28;20244;-67
2021/11/15 08:48:48;;;;;;;34.95;22.48;;;9.80;99.90;;;;;;5072743;28;20227;-67
2021/11/15 08:51:18;;;;;;;33.17;22.17;;;9.70;99.90;;;;;;5072086;28;20258;-67
2021/11/15 08:53:46;;;;;;;30.35;20.60;;;9.70;99.90;;;;;;5088631;28;20233;-68
2021/11/15 08:56:13;;;;;;;32.53;22.30;;;9.70;99.90;;;;;;5089212;28;20238;-67
2021/11/15 08:58:41;;;;;;;33.03;23.83;;;9.80;99.90;;;;;;5092723;28;20227;-67
2021/11/15 09:01:09;;;;;;;35.88;23.25;;;9.70;99.90;;;;;;5085899;28;20342;-67
2021/11/15 09:03:38;;;;;;;39.97;23.00;;;9.70;99.90;;;;;;5071542;28;20222;-67
2021/11/15 09:06:06;;;;;;;48.33;25.92;;;9.70;99.90;;;;;;5085884;28;20661;-67
2021/11/15 09:08:34;;;;;;;33.15;23.20;;;9.60;99.90;;;;;;5090287;28;20341;-67
2021/11/15 09:11:02;;;;;;;36.42;22.83;;;9.60;99.90;;;;;;5092608;28;20227;-67
2021/11/15 09:13:28;;;;;;;33.63;22.83;;;9.70;99.90;;;;;;5092238;28;20284;-67
2021/11/15 09:15:56;;;;;;;31.42;22.48;;;9.60;99.90;;;;;;5092760;28;20230;-67
2021/11/15 09:18:23;;;;;;;34.33;24.45;;;9.60;99.90;;;;;;5092164;28;20238;-67
2021/11/15 09:20:50;;;;;;;33.47;21.88;;;9.50;99.90;;;;;;5091554;28;20219;-67
2021/11/15 09:23:17;;;;;;;34.58;23.80;;;9.40;99.90;;;;;;5091233;28;20230;-68
2021/11/15 09:25:45;;;;;;;32.85;21.85;;;9.50;99.90;;;;;;5091580;28;20226;-67
2021/11/15 09:28:13;;;;;;;35.40;22.67;;;9.50;99.90;;;;;;5091559;28;20223;-68
2021/11/15 09:30:43;;;;;;;37.95;21.67;;;9.50;99.90;;;;;;5091055;28;20219;-66
2021/11/15 09:33:11;;;;;;;39.08;22.58;;;9.50;99.90;;;;;;5083377;28;20573;-67
2021/11/15 09:35:42;;;;;;;33.90;23.02;;;9.50;99.90;;;;;;5078668;28;20561;-67
2021/11/15 09:38:09;;;;;;;34.10;23.02;;;9.50;99.90;;;;;;5096264;28;20231;-67
2021/11/15 09:40:36;;;;;;;31.48;22.52;;;9.40;99.90;;;;;;5086134;28;20623;-67
2021/11/15 09:43:04;;;;;;;31.55;21.95;;;9.40;99.90;;;;;;5093358;28;20227;-68
2021/11/15 09:45:32;;;;;;;35.55;24.10;;;9.40;99.90;;;;;;5095887;28;20223;-67
2021/11/15 09:47:59;;;;;;;37.47;23.75;;;9.30;99.90;;;;;;5096239;28;20617;-67
2021/11/15 09:50:26;;;;;;;40.22;27.00;;;9.30;99.90;;;;;;5095643;28;20686;-68
2021/11/15 09:52:54;;;;;;;41.97;26.77;;;9.30;99.90;;;;;;5096016;28;20245;-67
2021/11/15 09:55:21;;;;;;;38.22;23.23;;;9.30;99.90;;;;;;5095695;28;20224;-67
2021/11/15 09:57:49;;;;;;;36.45;22.63;;;9.20;99.90;;;;;;5095488;28;20285;-68
2021/11/15 10:00:21;;;;;;;38.60;24.27;;;9.30;99.90;;;;;;5094892;28;20242;-68
2021/11/15 10:02:48;;;;;;;37.85;25.02;;;9.20;99.90;;;;;;5094585;28;20246;-68
2021/11/15 10:05:16;;;;;;;39.67;23.77;;;9.30;99.90;;;;;;5095963;28;20227;-67
2021/11/15 10:07:46;;;;;;;39.35;23.58;;;9.30;99.90;;;;;;5088829;28;20216;-68
2021/11/15 10:10:32;;;;;;;39.08;24.67;;;9.30;99.90;;;;;;5075672;28;20228;-68
2021/11/15 10:13:23;;;;;;;37.45;24.25;;;9.40;99.90;;;;;;5076071;28;20308;-68
2021/11/15 10:15:55;;;;;;;36.33;22.63;;;9.50;99.90;;;;;;5075592;28;20223;-67
2021/11/15 10:18:35;;;;;;;35.88;22.25;;;9.50;99.90;;;;;;5080391;28;20247;-67
2021/11/15 10:21:04;;;;;;;35.53;22.75;;;9.60;99.90;;;;;;5089420;28;20220;-67
2021/11/15 10:23:39;;;;;;;40.08;23.60;;;9.50;99.90;;;;;;5079172;28;20222;-68
2021/11/15 10:26:13;;;;;;;31.05;21.15;;;9.60;99.90;;;;;;5094926;28;20226;-67
2021/11/15 10:28:40;;;;;;;31.63;22.77;;;9.60;99.90;;;;;;5095288;28;20215;-67
2021/11/15 10:31:30;;;;;;;32.28;23.30;;;9.70;99.90;;;;;;5094923;28;20231;-68
2021/11/15 10:33:57;;;;;;;32.33;22.50;;;9.70;99.90;;;;;;5079849;28;20281;-68
2021/11/15 10:36:49;;;;;;;29.15;22.02;;;9.60;99.90;;;;;;5086806;28;20246;-67
2021/11/15 10:39:18;;;;;;;41.08;25.92;;;9.60;99.90;;;;;;5087993;28;20219;-67
2021/11/15 10:41:56;;;;;;;34.20;22.73;;;9.60;99.90;;;;;;5095401;28;20231;-67
2021/11/15 10:44:23;;;;;;;36.50;22.80;;;9.60;99.90;;;;;;5093076;28;20220;-67
2021/11/15 10:46:54;;;;;;;29.50;20.98;;;9.60;99.90;;;;;;5093496;28;20724;-67
2021/11/15 10:49:23;;;;;;;32.40;20.35;;;9.60;99.90;;;;;;5094459;28;20227;-67
2021/11/15 10:51:53;;;;;;;28.25;20.65;;;9.60;99.90;;;;;;5088995;28;20215;-67
2021/11/15 10:54:46;;;;;;;31.20;21.40;;;9.70;99.90;;;;;;5094583;28;20219;-67
2021/11/15 10:57:21;;;;;;;31.98;20.65;;;9.70;99.90;;;;;;5094361;28;20547;-68
2021/11/15 11:00:28;;;;;;;31.30;21.55;;;9.70;99.90;;;;;;5094575;28;20230;-68
2021/11/15 11:03:06;;;;;;;35.00;22.20;;;9.70;99.90;;;;;;5089707;28;20226;-68
2021/11/15 11:05:34;;;;;;;34.83;21.02;;;9.80;99.90;;;;;;5079628;28;20228;-68
2021/11/15 11:08:10;;;;;;;28.67;20.08;;;9.70;99.90;;;;;;5094125;28;20224;-68
2021/11/15 11:10:43;;;;;;;38.35;22.95;;;9.80;99.90;;;;;;5094662;28;20219;-67
2021/11/15 11:13:14;;;;;;;28.42;20.02;;;9.80;99.90;;;;;;5094004;28;20920;-68
2021/11/15 11:15:44;;;;;;;29.90;20.60;;;9.70;99.90;;;;;;5087549;28;20620;-67
2021/11/15 11:18:15;;;;;;;36.00;22.52;;;9.70;99.90;;;;;;5073127;28;20234;-67
2021/11/15 11:26:56;;;;;;;35.70;23.13;;;9.70;99.90;;;;;;5092446;28;20653;-67
2021/11/15 11:29:26;;;;;;;31.00;21.27;;;9.70;99.90;;;;;;5092792;28;20311;-67
2021/11/15 11:31:55;;;;;;;26.55;20.17;;;9.70;99.90;;;;;;5092705;28;20227;-67
2021/11/15 11:34:24;;;;;;;31.63;22.13;;;9.70;99.90;;;;;;5094240;28;20234;-67
2021/11/15 11:36:52;;;;;;;29.20;21.60;;;9.80;99.90;;;;;;5083629;28;20223;-67
2021/11/15 11:39:21;;;;;;;35.40;22.38;;;9.80;99.90;;;;;;5073805;28;20220;-68
2021/11/15 11:41:53;;;;;;;33.15;20.00;;;9.80;99.90;;;;;;5073593;28;20227;-68
2021/11/15 11:44:22;;;;;;;35.92;20.33;;;9.80;99.90;;;;;;5073964;28;20319;-68
2021/11/15 11:46:49;;;;;;;27.85;19.65;;;9.90;99.90;;;;;;5073435;28;20224;-68
2021/11/15 11:49:19;;;;;;;33.42;21.52;;;9.90;99.90;;;;;;5073777;28;20616;-66
2021/11/15 11:51:50;;;;;;;30.38;20.88;;;9.90;99.90;;;;;;5073249;28;20228;-67
2021/11/15 11:54:21;;;;;;;32.25;20.23;;;10.00;99.90;;;;;;5073358;28;20322;-68
2021/11/15 11:57:16;;;;;;;35.08;22.33;;;10.00;99.90;;;;;;5073050;28;20235;-68
2021/11/15 12:00:00;;;;;;;30.40;22.38;;;10.00;99.90;;;;;;5049167;28;20575;-68
2021/11/15 12:02:29;;;;;;;32.45;23.55;;;10.00;99.90;;;;;;5073561;28;20228;-67
2021/11/15 12:05:00;;;;;;;30.60;23.92;;;10.10;99.90;;;;;;5073367;28;20243;-67
2021/11/15 12:07:31;;;;;;;26.35;21.77;;;10.10;99.90;;;;;;5076346;28;20678;-67
2021/11/15 12:10:00;;;;;;;31.45;22.63;;;10.10;99.90;;;;;;5079319;28;20224;-67
2021/11/15 12:12:28;;;;;;;31.52;22.55;;;10.10;99.90;;;;;;5089503;28;20235;-67
2021/11/15 12:14:54;;;;;;;27.70;21.85;;;10.10;99.90;;;;;;5091982;28;20232;-68
2021/11/15 12:17:23;;;;;;;30.88;23.30;;;10.10;99.90;;;;;;5077789;28;20670;-67
2021/11/15 12:20:05;;;;;;;34.20;24.95;;;10.00;99.90;;;;;;5072896;28;20540;-67
2021/11/15 12:22:44;;;;;;;41.33;28.58;;;10.00;99.90;;;;;;5080331;28;20224;-67
2021/11/15 12:25:13;;;;;;;32.00;22.58;;;9.90;99.90;;;;;;5078098;28;20219;-67
2021/11/15 12:27:44;;;;;;;40.35;30.02;;;9.90;99.90;;;;;;5072881;28;20980;-67
2021/11/15 12:30:12;;;;;;;43.58;30.35;;;9.90;99.90;;;;;;5072706;28;20232;-68
2021/11/15 12:32:41;;;;;;;39.83;28.80;;;9.80;99.90;;;;;;5080604;28;20250;-67
2021/11/15 12:35:08;;;;;;;47.00;31.10;;;9.80;99.90;;;;;;5093222;28;20226;-67
2021/11/15 12:37:40;;;;;;;53.95;38.53;;;9.80;99.90;;;;;;5075941;28;20240;-67
2021/11/15 12:40:30;;;;;;;50.30;37.58;;;9.80;99.90;;;;;;5072875;28;20227;-68
2021/11/15 12:43:13;;;;;;;42.63;31.83;;;9.80;99.90;;;;;;5087792;28;20564;-68
2021/11/15 12:45:48;;;;;;;56.85;40.67;;;9.80;99.90;;;;;;5083383;28;20216;-68
2021/11/15 12:48:33;;;;;;;49.97;37.38;;;9.70;99.90;;;;;;5072378;28;20742;-68
2021/11/15 12:51:11;;;;;;;42.20;30.67;;;9.80;99.90;;;;;;5072491;28;20310;-68